sensor_id;sensor_type;location;lat;lon;timestamp;temperature;humidity
23579;DHT22;11967;50.852;4.400;2022-09-02T00:01:28;24.40;78.20
23579;DHT22;11967;50.852;4.400;2022-09-02T00:03:57;24.40;78.00
23579;DHT22;11967;50.852;4.400;2022-09-02T00:06:23;24.40;78.00
23579;DHT22;11967;50.852;4.400;2022-09-02T00:08:49;24.30;78.20
23579;DHT22;11967;50.852;4.400;2022-09-02T00:11:19;24.30;78.40
23579;DHT22;11967;50.852;4.400;2022-09-02T00:13:47;24.30;78.60
23579;DHT22;11967;50.852;4.400;2022-09-02T00:16:13;24.20;78.80
23579;DHT22;11967;50.852;4.400;2022-09-02T00:18:40;24.30;79.00
23579;DHT22;11967;50.852;4.400;2022-09-02T00:21:06;24.30;79.50
23579;DHT22;11967;50.852;4.400;2022-09-02T00:23:32;24.30;78.90
23579;DHT22;11967;50.852;4.400;2022-09-02T00:25:58;24.30;79.00
23579;DHT22;11967;50.852;4.400;2022-09-02T00:28:24;24.20;79.00
23579;DHT22;11967;50.852;4.400;2022-09-02T00:30:50;24.30;79.30
23579;DHT22;11967;50.852;4.400;2022-09-02T00:33:16;24.20;79.40
23579;DHT22;11967;50.852;4.400;2022-09-02T00:35:42;24.10;80.30
23579;DHT22;11967;50.852;4.400;2022-09-02T00:38:11;24.10;79.60
23579;DHT22;11967;50.852;4.400;2022-09-02T00:40:38;24.10;79.70
23579;DHT22;11967;50.852;4.400;2022-09-02T00:43:08;24.10;79.80
23579;DHT22;11967;50.852;4.400;2022-09-02T00:45:34;24.10;79.70
23579;DHT22;11967;50.852;4.400;2022-09-02T00:48:00;24.10;79.80
23579;DHT22;11967;50.852;4.400;2022-09-02T00:50:30;24.10;79.80
23579;DHT22;11967;50.852;4.400;2022-09-02T00:53:06;24.10;79.90
23579;DHT22;11967;50.852;4.400;2022-09-02T00:55:37;24.00;80.00
23579;DHT22;11967;50.852;4.400;2022-09-02T00:58:09;24.10;80.10
23579;DHT22;11967;50.852;4.400;2022-09-02T01:00:41;24.10;80.00
23579;DHT22;11967;50.852;4.400;2022-09-02T01:03:12;24.00;80.00
23579;DHT22;11967;50.852;4.400;2022-09-02T01:05:41;24.00;80.30
23579;DHT22;11967;50.852;4.400;2022-09-02T01:08:11;24.00;80.40
23579;DHT22;11967;50.852;4.400;2022-09-02T01:10:37;24.00;80.40
23579;DHT22;11967;50.852;4.400;2022-09-02T01:13:12;24.00;80.40
23579;DHT22;11967;50.852;4.400;2022-09-02T01:15:41;24.00;80.50
23579;DHT22;11967;50.852;4.400;2022-09-02T01:18:12;24.00;80.40
23579;DHT22;11967;50.852;4.400;2022-09-02T01:20:38;23.90;80.80
23579;DHT22;11967;50.852;4.400;2022-09-02T01:23:03;23.90;80.90
23579;DHT22;11967;50.852;4.400;2022-09-02T01:25:33;23.80;81.60
23579;DHT22;11967;50.852;4.400;2022-09-02T01:28:18;23.80;80.90
23579;DHT22;11967;50.852;4.400;2022-09-02T01:30:48;23.80;81.10
23579;DHT22;11967;50.852;4.400;2022-09-02T01:33:15;23.80;81.10
23579;DHT22;11967;50.852;4.400;2022-09-02T01:35:41;23.70;81.20
23579;DHT22;11967;50.852;4.400;2022-09-02T01:38:07;23.70;81.30
23579;DHT22;11967;50.852;4.400;2022-09-02T01:40:33;23.70;81.60
23579;DHT22;11967;50.852;4.400;2022-09-02T01:43:07;23.70;82.00
23579;DHT22;11967;50.852;4.400;2022-09-02T01:45:35;23.70;81.60
23579;DHT22;11967;50.852;4.400;2022-09-02T01:48:02;23.60;81.80
23579;DHT22;11967;50.852;4.400;2022-09-02T01:50:29;23.60;81.80
23579;DHT22;11967;50.852;4.400;2022-09-02T01:52:56;23.70;81.80
23579;DHT22;11967;50.852;4.400;2022-09-02T01:55:22;23.70;81.80
23579;DHT22;11967;50.852;4.400;2022-09-02T01:57:48;23.70;81.80
23579;DHT22;11967;50.852;4.400;2022-09-02T02:00:14;23.70;81.90
23579;DHT22;11967;50.852;4.400;2022-09-02T02:02:40;23.70;81.70
23579;DHT22;11967;50.852;4.400;2022-09-02T02:05:07;23.70;81.80
23579;DHT22;11967;50.852;4.400;2022-09-02T02:07:33;23.70;82.60
23579;DHT22;11967;50.852;4.400;2022-09-02T02:09:59;23.70;82.10
23579;DHT22;11967;50.852;4.400;2022-09-02T02:12:28;23.70;82.40
23579;DHT22;11967;50.852;4.400;2022-09-02T02:14:53;23.60;82.50
23579;DHT22;11967;50.852;4.400;2022-09-02T02:17:19;23.60;82.50
23579;DHT22;11967;50.852;4.400;2022-09-02T02:19:45;23.60;82.60
23579;DHT22;11967;50.852;4.400;2022-09-02T02:22:10;23.50;82.80
23579;DHT22;11967;50.852;4.400;2022-09-02T02:24:36;23.50;82.80
23579;DHT22;11967;50.852;4.400;2022-09-02T02:27:02;23.40;83.10
23579;DHT22;11967;50.852;4.400;2022-09-02T02:29:29;23.50;83.30
23579;DHT22;11967;50.852;4.400;2022-09-02T02:31:55;23.40;83.40
23579;DHT22;11967;50.852;4.400;2022-09-02T02:34:20;23.40;83.40
23579;DHT22;11967;50.852;4.400;2022-09-02T02:36:46;23.50;83.20
23579;DHT22;11967;50.852;4.400;2022-09-02T02:39:12;23.50;83.10
23579;DHT22;11967;50.852;4.400;2022-09-02T02:41:39;23.50;83.50
23579;DHT22;11967;50.852;4.400;2022-09-02T02:44:06;23.50;83.50
23579;DHT22;11967;50.852;4.400;2022-09-02T02:46:32;23.50;83.50
23579;DHT22;11967;50.852;4.400;2022-09-02T02:49:00;23.40;83.70
23579;DHT22;11967;50.852;4.400;2022-09-02T02:51:26;23.40;83.80
23579;DHT22;11967;50.852;4.400;2022-09-02T02:53:52;23.40;83.90
23579;DHT22;11967;50.852;4.400;2022-09-02T02:56:18;23.40;84.00
23579;DHT22;11967;50.852;4.400;2022-09-02T02:58:44;23.40;84.20
23579;DHT22;11967;50.852;4.400;2022-09-02T03:01:10;23.40;84.30
23579;DHT22;11967;50.852;4.400;2022-09-02T03:03:36;23.50;84.30
23579;DHT22;11967;50.852;4.400;2022-09-02T03:06:02;23.40;84.40
23579;DHT22;11967;50.852;4.400;2022-09-02T03:08:28;23.40;84.50
23579;DHT22;11967;50.852;4.400;2022-09-02T03:10:54;23.50;84.70
23579;DHT22;11967;50.852;4.400;2022-09-02T03:13:24;23.50;84.70
23579;DHT22;11967;50.852;4.400;2022-09-02T03:15:50;23.50;84.80
23579;DHT22;11967;50.852;4.400;2022-09-02T03:18:16;23.50;85.00
23579;DHT22;11967;50.852;4.400;2022-09-02T03:20:43;23.40;85.10
23579;DHT22;11967;50.852;4.400;2022-09-02T03:23:10;23.40;85.40
23579;DHT22;11967;50.852;4.400;2022-09-02T03:25:39;23.40;85.70
23579;DHT22;11967;50.852;4.400;2022-09-02T03:28:05;23.40;85.70
23579;DHT22;11967;50.852;4.400;2022-09-02T03:30:34;23.30;86.00
23579;DHT22;11967;50.852;4.400;2022-09-02T03:33:01;23.30;86.10
23579;DHT22;11967;50.852;4.400;2022-09-02T03:35:28;23.40;86.20
23579;DHT22;11967;50.852;4.400;2022-09-02T03:37:54;23.40;86.40
23579;DHT22;11967;50.852;4.400;2022-09-02T03:40:23;23.40;86.40
23579;DHT22;11967;50.852;4.400;2022-09-02T03:42:49;23.40;86.30
23579;DHT22;11967;50.852;4.400;2022-09-02T03:45:15;23.50;86.30
23579;DHT22;11967;50.852;4.400;2022-09-02T03:47:43;23.40;86.30
23579;DHT22;11967;50.852;4.400;2022-09-02T03:50:21;23.40;86.50
23579;DHT22;11967;50.852;4.400;2022-09-02T03:52:47;23.40;86.40
23579;DHT22;11967;50.852;4.400;2022-09-02T03:55:14;23.40;86.50
23579;DHT22;11967;50.852;4.400;2022-09-02T03:57:39;23.40;86.70
23579;DHT22;11967;50.852;4.400;2022-09-02T04:00:07;23.40;86.80
23579;DHT22;11967;50.852;4.400;2022-09-02T04:02:33;23.20;87.20
23579;DHT22;11967;50.852;4.400;2022-09-02T04:04:59;23.20;87.60
23579;DHT22;11967;50.852;4.400;2022-09-02T04:07:25;23.10;87.80
23579;DHT22;11967;50.852;4.400;2022-09-02T04:09:51;23.10;88.00
23579;DHT22;11967;50.852;4.400;2022-09-02T04:12:17;23.10;88.10
23579;DHT22;11967;50.852;4.400;2022-09-02T04:14:42;23.10;88.40
23579;DHT22;11967;50.852;4.400;2022-09-02T04:17:08;23.00;88.60
23579;DHT22;11967;50.852;4.400;2022-09-02T04:19:34;23.00;89.00
23579;DHT22;11967;50.852;4.400;2022-09-02T04:22:02;23.00;89.20
23579;DHT22;11967;50.852;4.400;2022-09-02T04:24:28;22.90;89.30
23579;DHT22;11967;50.852;4.400;2022-09-02T04:26:54;22.90;89.50
23579;DHT22;11967;50.852;4.400;2022-09-02T04:29:19;23.00;89.50
23579;DHT22;11967;50.852;4.400;2022-09-02T04:31:45;22.90;89.70
23579;DHT22;11967;50.852;4.400;2022-09-02T04:34:11;22.90;89.90
23579;DHT22;11967;50.852;4.400;2022-09-02T04:36:36;22.80;90.10
23579;DHT22;11967;50.852;4.400;2022-09-02T04:39:02;22.70;90.30
23579;DHT22;11967;50.852;4.400;2022-09-02T04:41:29;22.70;90.40
23579;DHT22;11967;50.852;4.400;2022-09-02T04:43:56;22.70;90.50
23579;DHT22;11967;50.852;4.400;2022-09-02T04:46:23;22.70;90.50
23579;DHT22;11967;50.852;4.400;2022-09-02T04:48:48;22.70;90.50
23579;DHT22;11967;50.852;4.400;2022-09-02T04:51:17;22.70;90.60
23579;DHT22;11967;50.852;4.400;2022-09-02T04:53:48;22.70;90.60
23579;DHT22;11967;50.852;4.400;2022-09-02T04:56:17;22.70;90.70
23579;DHT22;11967;50.852;4.400;2022-09-02T04:58:43;22.70;90.70
23579;DHT22;11967;50.852;4.400;2022-09-02T05:01:12;22.80;90.80
23579;DHT22;11967;50.852;4.400;2022-09-02T05:03:40;22.70;90.80
23579;DHT22;11967;50.852;4.400;2022-09-02T05:06:08;22.70;91.00
23579;DHT22;11967;50.852;4.400;2022-09-02T05:08:34;22.70;91.00
23579;DHT22;11967;50.852;4.400;2022-09-02T05:11:07;22.70;91.10
23579;DHT22;11967;50.852;4.400;2022-09-02T05:13:33;22.70;91.20
23579;DHT22;11967;50.852;4.400;2022-09-02T05:16:02;22.70;91.40
23579;DHT22;11967;50.852;4.400;2022-09-02T05:18:28;22.70;91.40
23579;DHT22;11967;50.852;4.400;2022-09-02T05:20:54;22.70;91.40
23579;DHT22;11967;50.852;4.400;2022-09-02T05:23:20;22.70;91.50
23579;DHT22;11967;50.852;4.400;2022-09-02T05:25:46;22.70;91.60
23579;DHT22;11967;50.852;4.400;2022-09-02T05:28:12;22.70;91.60
23579;DHT22;11967;50.852;4.400;2022-09-02T05:30:39;22.70;91.70
23579;DHT22;11967;50.852;4.400;2022-09-02T05:33:07;22.70;91.70
23579;DHT22;11967;50.852;4.400;2022-09-02T05:35:33;22.70;91.80
23579;DHT22;11967;50.852;4.400;2022-09-02T05:37:59;22.80;91.80
23579;DHT22;11967;50.852;4.400;2022-09-02T05:40:24;22.80;91.80
23579;DHT22;11967;50.852;4.400;2022-09-02T05:42:51;22.70;91.90
23579;DHT22;11967;50.852;4.400;2022-09-02T05:45:17;22.70;92.00
23579;DHT22;11967;50.852;4.400;2022-09-02T05:47:43;22.70;92.10
23579;DHT22;11967;50.852;4.400;2022-09-02T05:50:09;22.70;92.10
23579;DHT22;11967;50.852;4.400;2022-09-02T05:52:34;22.70;92.10
23579;DHT22;11967;50.852;4.400;2022-09-02T05:55:00;22.80;92.20
23579;DHT22;11967;50.852;4.400;2022-09-02T05:57:28;22.80;92.20
23579;DHT22;11967;50.852;4.400;2022-09-02T05:59:53;22.80;92.10
23579;DHT22;11967;50.852;4.400;2022-09-02T06:02:23;22.80;92.30
23579;DHT22;11967;50.852;4.400;2022-09-02T06:04:51;22.80;92.30
23579;DHT22;11967;50.852;4.400;2022-09-02T06:07:20;22.80;92.30
23579;DHT22;11967;50.852;4.400;2022-09-02T06:09:47;22.80;92.40
23579;DHT22;11967;50.852;4.400;2022-09-02T06:12:14;22.80;92.50
23579;DHT22;11967;50.852;4.400;2022-09-02T06:14:40;22.80;92.60
23579;DHT22;11967;50.852;4.400;2022-09-02T06:17:06;22.70;92.70
23579;DHT22;11967;50.852;4.400;2022-09-02T06:19:32;22.80;92.80
23579;DHT22;11967;50.852;4.400;2022-09-02T06:22:00;22.70;92.90
23579;DHT22;11967;50.852;4.400;2022-09-02T06:24:27;22.80;92.90
23579;DHT22;11967;50.852;4.400;2022-09-02T06:26:54;22.80;92.90
23579;DHT22;11967;50.852;4.400;2022-09-02T06:29:21;22.80;93.00
23579;DHT22;11967;50.852;4.400;2022-09-02T06:31:48;22.80;93.10
23579;DHT22;11967;50.852;4.400;2022-09-02T06:34:16;22.80;93.20
23579;DHT22;11967;50.852;4.400;2022-09-02T06:36:43;22.80;93.20
23579;DHT22;11967;50.852;4.400;2022-09-02T06:39:13;22.80;93.20
23579;DHT22;11967;50.852;4.400;2022-09-02T06:41:40;22.90;93.30
23579;DHT22;11967;50.852;4.400;2022-09-02T06:44:07;22.90;93.20
23579;DHT22;11967;50.852;4.400;2022-09-02T06:46:36;22.90;93.30
23579;DHT22;11967;50.852;4.400;2022-09-02T06:49:05;23.00;93.40
23579;DHT22;11967;50.852;4.400;2022-09-02T06:51:39;23.00;93.40
23579;DHT22;11967;50.852;4.400;2022-09-02T06:54:12;23.00;93.80
23579;DHT22;11967;50.852;4.400;2022-09-02T06:56:38;23.10;93.40
23579;DHT22;11967;50.852;4.400;2022-09-02T06:59:04;23.00;93.40
23579;DHT22;11967;50.852;4.400;2022-09-02T07:01:33;23.10;93.30
23579;DHT22;11967;50.852;4.400;2022-09-02T07:03:59;23.10;93.50
23579;DHT22;11967;50.852;4.400;2022-09-02T07:06:47;23.10;93.70
23579;DHT22;11967;50.852;4.400;2022-09-02T07:09:16;23.10;93.70
23579;DHT22;11967;50.852;4.400;2022-09-02T07:11:42;23.10;93.70
23579;DHT22;11967;50.852;4.400;2022-09-02T07:14:13;23.10;93.70
23579;DHT22;11967;50.852;4.400;2022-09-02T07:16:43;23.10;93.70
23579;DHT22;11967;50.852;4.400;2022-09-02T07:19:09;23.20;93.70
23579;DHT22;11967;50.852;4.400;2022-09-02T07:21:37;23.20;93.70
23579;DHT22;11967;50.852;4.400;2022-09-02T07:24:05;23.10;93.80
23579;DHT22;11967;50.852;4.400;2022-09-02T07:26:30;23.20;93.90
23579;DHT22;11967;50.852;4.400;2022-09-02T07:28:56;23.20;93.90
23579;DHT22;11967;50.852;4.400;2022-09-02T07:31:22;23.30;93.70
23579;DHT22;11967;50.852;4.400;2022-09-02T07:33:48;23.30;93.60
23579;DHT22;11967;50.852;4.400;2022-09-02T07:36:14;23.30;93.60
23579;DHT22;11967;50.852;4.400;2022-09-02T07:38:40;23.30;93.50
23579;DHT22;11967;50.852;4.400;2022-09-02T07:41:09;23.30;93.50
23579;DHT22;11967;50.852;4.400;2022-09-02T07:43:36;23.30;93.60
23579;DHT22;11967;50.852;4.400;2022-09-02T07:46:04;23.20;93.60
23579;DHT22;11967;50.852;4.400;2022-09-02T07:48:30;23.30;93.70
23579;DHT22;11967;50.852;4.400;2022-09-02T07:50:57;23.30;93.70
23579;DHT22;11967;50.852;4.400;2022-09-02T07:53:23;23.30;93.70
23579;DHT22;11967;50.852;4.400;2022-09-02T07:55:49;23.40;93.80
23579;DHT22;11967;50.852;4.400;2022-09-02T07:58:16;23.40;93.90
23579;DHT22;11967;50.852;4.400;2022-09-02T08:00:42;23.40;93.90
23579;DHT22;11967;50.852;4.400;2022-09-02T08:03:09;23.40;94.00
23579;DHT22;11967;50.852;4.400;2022-09-02T08:05:35;23.40;93.90
23579;DHT22;11967;50.852;4.400;2022-09-02T08:08:02;23.50;93.90
23579;DHT22;11967;50.852;4.400;2022-09-02T08:10:28;23.50;93.80
23579;DHT22;11967;50.852;4.400;2022-09-02T08:12:56;23.60;93.90
23579;DHT22;11967;50.852;4.400;2022-09-02T08:15:23;23.50;94.10
23579;DHT22;11967;50.852;4.400;2022-09-02T08:17:49;23.50;94.20
23579;DHT22;11967;50.852;4.400;2022-09-02T08:20:15;23.60;94.10
23579;DHT22;11967;50.852;4.400;2022-09-02T08:22:42;23.70;94.10
23579;DHT22;11967;50.852;4.400;2022-09-02T08:25:09;23.70;94.20
23579;DHT22;11967;50.852;4.400;2022-09-02T08:27:49;23.70;94.20
23579;DHT22;11967;50.852;4.400;2022-09-02T08:30:17;23.80;94.40
23579;DHT22;11967;50.852;4.400;2022-09-02T08:32:43;23.80;94.40
23579;DHT22;11967;50.852;4.400;2022-09-02T08:35:09;23.80;94.40
23579;DHT22;11967;50.852;4.400;2022-09-02T08:37:37;23.80;94.60
23579;DHT22;11967;50.852;4.400;2022-09-02T08:40:05;23.80;94.70
23579;DHT22;11967;50.852;4.400;2022-09-02T08:47:35;23.90;94.60
23579;DHT22;11967;50.852;4.400;2022-09-02T08:50:10;24.00;94.70
23579;DHT22;11967;50.852;4.400;2022-09-02T08:55:22;24.10;94.70
23579;DHT22;11967;50.852;4.400;2022-09-02T08:57:50;24.20;94.70
23579;DHT22;11967;50.852;4.400;2022-09-02T09:00:16;24.20;94.40
23579;DHT22;11967;50.852;4.400;2022-09-02T09:03:02;24.30;94.40
23579;DHT22;11967;50.852;4.400;2022-09-02T09:05:42;24.30;94.60
23579;DHT22;11967;50.852;4.400;2022-09-02T09:11:06;24.30;94.50
23579;DHT22;11967;50.852;4.400;2022-09-02T09:13:44;24.30;94.50
23579;DHT22;11967;50.852;4.400;2022-09-02T09:19:09;24.40;94.40
23579;DHT22;11967;50.852;4.400;2022-09-02T09:21:36;24.50;94.50
23579;DHT22;11967;50.852;4.400;2022-09-02T09:24:07;24.50;94.30
23579;DHT22;11967;50.852;4.400;2022-09-02T09:26:35;24.60;94.30
23579;DHT22;11967;50.852;4.400;2022-09-02T09:29:04;24.60;94.30
23579;DHT22;11967;50.852;4.400;2022-09-02T09:31:31;24.70;94.30
23579;DHT22;11967;50.852;4.400;2022-09-02T09:33:58;24.70;94.30
23579;DHT22;11967;50.852;4.400;2022-09-02T09:39:23;24.80;94.20
23579;DHT22;11967;50.852;4.400;2022-09-02T09:41:51;24.90;93.90
23579;DHT22;11967;50.852;4.400;2022-09-02T09:44:44;25.10;93.90
23579;DHT22;11967;50.852;4.400;2022-09-02T09:49:39;25.20;93.60
23579;DHT22;11967;50.852;4.400;2022-09-02T09:52:05;25.30;93.40
23579;DHT22;11967;50.852;4.400;2022-09-02T09:54:31;25.30;93.30
23579;DHT22;11967;50.852;4.400;2022-09-02T09:57:15;25.30;93.40
23579;DHT22;11967;50.852;4.400;2022-09-02T09:59:45;25.40;93.30
23579;DHT22;11967;50.852;4.400;2022-09-02T10:02:23;25.40;93.20
23579;DHT22;11967;50.852;4.400;2022-09-02T10:07:41;25.50;92.90
23579;DHT22;11967;50.852;4.400;2022-09-02T10:10:24;25.60;92.80
23579;DHT22;11967;50.852;4.400;2022-09-02T10:12:53;25.80;92.80
23579;DHT22;11967;50.852;4.400;2022-09-02T10:18:18;25.90;92.50
23579;DHT22;11967;50.852;4.400;2022-09-02T10:23:44;26.10;92.30
23579;DHT22;11967;50.852;4.400;2022-09-02T10:26:26;26.20;92.20
23579;DHT22;11967;50.852;4.400;2022-09-02T10:42:34;26.60;91.00
23579;DHT22;11967;50.852;4.400;2022-09-02T10:45:44;26.60;91.10
23579;DHT22;11967;50.852;4.400;2022-09-02T10:51:05;26.70;90.30
23579;DHT22;11967;50.852;4.400;2022-09-02T10:56:22;26.80;90.00
23579;DHT22;11967;50.852;4.400;2022-09-02T11:01:44;26.90;89.50
23579;DHT22;11967;50.852;4.400;2022-09-02T11:04:33;26.90;89.10
23579;DHT22;11967;50.852;4.400;2022-09-02T11:07:03;26.90;88.70
23579;DHT22;11967;50.852;4.400;2022-09-02T11:09:42;27.00;88.60
23579;DHT22;11967;50.852;4.400;2022-09-02T11:15:19;27.10;88.10
23579;DHT22;11967;50.852;4.400;2022-09-02T11:20:31;27.30;88.30
23579;DHT22;11967;50.852;4.400;2022-09-02T11:23:00;27.40;88.00
23579;DHT22;11967;50.852;4.400;2022-09-02T11:25:42;27.40;87.40
23579;DHT22;11967;50.852;4.400;2022-09-02T11:28:51;27.40;86.70
23579;DHT22;11967;50.852;4.400;2022-09-02T11:31:23;27.50;86.40
23579;DHT22;11967;50.852;4.400;2022-09-02T11:34:18;27.50;86.80
23579;DHT22;11967;50.852;4.400;2022-09-02T11:36:45;27.60;85.40
23579;DHT22;11967;50.852;4.400;2022-09-02T11:39:44;27.50;85.10
23579;DHT22;11967;50.852;4.400;2022-09-02T11:42:32;27.70;84.30
23579;DHT22;11967;50.852;4.400;2022-09-02T11:47:49;27.80;82.70
23579;DHT22;11967;50.852;4.400;2022-09-02T11:55:45;27.80;80.80
23579;DHT22;11967;50.852;4.400;2022-09-02T11:58:39;27.90;79.60
23579;DHT22;11967;50.852;4.400;2022-09-02T12:04:00;28.00;79.10
23579;DHT22;11967;50.852;4.400;2022-09-02T12:06:26;28.10;78.90
23579;DHT22;11967;50.852;4.400;2022-09-02T12:11:43;28.10;77.70
23579;DHT22;11967;50.852;4.400;2022-09-02T12:17:00;28.20;76.60
23579;DHT22;11967;50.852;4.400;2022-09-02T12:19:43;28.30;75.70
23579;DHT22;11967;50.852;4.400;2022-09-02T12:24:55;28.40;74.40
23579;DHT22;11967;50.852;4.400;2022-09-02T12:29:50;28.50;73.80
23579;DHT22;11967;50.852;4.400;2022-09-02T12:35:34;28.50;71.20
23579;DHT22;11967;50.852;4.400;2022-09-02T12:40:40;28.50;71.80
23579;DHT22;11967;50.852;4.400;2022-09-02T12:43:24;28.50;71.70
23579;DHT22;11967;50.852;4.400;2022-09-02T12:45:53;28.50;71.10
23579;DHT22;11967;50.852;4.400;2022-09-02T12:48:27;28.50;71.60
23579;DHT22;11967;50.852;4.400;2022-09-02T12:50:56;28.60;70.30
23579;DHT22;11967;50.852;4.400;2022-09-02T12:56:21;28.60;69.40
23579;DHT22;11967;50.852;4.400;2022-09-02T12:58:50;28.50;68.60
23579;DHT22;11967;50.852;4.400;2022-09-02T13:04:15;28.50;67.10
23579;DHT22;11967;50.852;4.400;2022-09-02T13:06:55;28.40;66.80
23579;DHT22;11967;50.852;4.400;2022-09-02T13:15:57;28.50;67.00
23579;DHT22;11967;50.852;4.400;2022-09-02T13:27:34;28.70;66.00
23579;DHT22;11967;50.852;4.400;2022-09-02T13:32:31;28.70;65.50
23579;DHT22;11967;50.852;4.400;2022-09-02T13:35:08;28.80;65.00
23579;DHT22;11967;50.852;4.400;2022-09-02T13:37:41;28.90;64.20
23579;DHT22;11967;50.852;4.400;2022-09-02T13:40:18;29.00;63.80
23579;DHT22;11967;50.852;4.400;2022-09-02T13:42:49;28.80;63.90
23579;DHT22;11967;50.852;4.400;2022-09-02T13:45:23;28.80;64.10
23579;DHT22;11967;50.852;4.400;2022-09-02T13:48:02;28.90;64.20
23579;DHT22;11967;50.852;4.400;2022-09-02T13:50:31;28.90;62.90
23579;DHT22;11967;50.852;4.400;2022-09-02T13:53:00;28.90;61.80
23579;DHT22;11967;50.852;4.400;2022-09-02T13:55:27;28.90;60.70
23579;DHT22;11967;50.852;4.400;2022-09-02T13:58:01;28.90;60.80
23579;DHT22;11967;50.852;4.400;2022-09-02T14:00:39;28.90;60.30
23579;DHT22;11967;50.852;4.400;2022-09-02T14:03:09;29.00;60.60
23579;DHT22;11967;50.852;4.400;2022-09-02T14:05:37;29.00;60.10
23579;DHT22;11967;50.852;4.400;2022-09-02T14:08:06;29.00;60.00
23579;DHT22;11967;50.852;4.400;2022-09-02T14:10:34;28.90;60.00
23579;DHT22;11967;50.852;4.400;2022-09-02T14:13:02;28.90;60.00
23579;DHT22;11967;50.852;4.400;2022-09-02T14:15:30;28.90;60.30
23579;DHT22;11967;50.852;4.400;2022-09-02T14:18:17;29.00;60.10
23579;DHT22;11967;50.852;4.400;2022-09-02T14:20:59;29.00;60.10
23579;DHT22;11967;50.852;4.400;2022-09-02T14:23:27;29.10;60.00
23579;DHT22;11967;50.852;4.400;2022-09-02T14:25:57;29.00;59.80
23579;DHT22;11967;50.852;4.400;2022-09-02T14:28:25;29.00;59.90
23579;DHT22;11967;50.852;4.400;2022-09-02T14:31:06;29.00;60.40
23579;DHT22;11967;50.852;4.400;2022-09-02T14:33:41;28.90;59.50
23579;DHT22;11967;50.852;4.400;2022-09-02T14:43:44;28.80;59.10
23579;DHT22;11967;50.852;4.400;2022-09-02T14:46:37;28.80;58.90
23579;DHT22;11967;50.852;4.400;2022-09-02T14:51:52;29.00;58.70
23579;DHT22;11967;50.852;4.400;2022-09-02T14:54:38;29.00;58.00
23579;DHT22;11967;50.852;4.400;2022-09-02T14:57:18;29.10;58.10
23579;DHT22;11967;50.852;4.400;2022-09-02T14:59:44;29.10;57.90
23579;DHT22;11967;50.852;4.400;2022-09-02T15:05:05;29.10;58.10
23579;DHT22;11967;50.852;4.400;2022-09-02T15:07:32;29.20;57.60
23579;DHT22;11967;50.852;4.400;2022-09-02T15:09:58;29.20;57.30
23579;DHT22;11967;50.852;4.400;2022-09-02T15:12:52;29.20;57.20
23579;DHT22;11967;50.852;4.400;2022-09-02T15:15:19;29.20;56.70
23579;DHT22;11967;50.852;4.400;2022-09-02T15:17:45;29.10;56.60
23579;DHT22;11967;50.852;4.400;2022-09-02T15:20:11;29.10;56.90
23579;DHT22;11967;50.852;4.400;2022-09-02T15:22:37;29.10;56.90
23579;DHT22;11967;50.852;4.400;2022-09-02T15:25:04;29.10;56.50
23579;DHT22;11967;50.852;4.400;2022-09-02T15:27:32;29.10;56.80
23579;DHT22;11967;50.852;4.400;2022-09-02T15:29:59;29.10;56.90
23579;DHT22;11967;50.852;4.400;2022-09-02T15:32:25;29.00;56.60
23579;DHT22;11967;50.852;4.400;2022-09-02T15:34:51;29.10;56.80
23579;DHT22;11967;50.852;4.400;2022-09-02T15:37:17;29.10;56.30
23579;DHT22;11967;50.852;4.400;2022-09-02T15:39:43;29.10;56.10
23579;DHT22;11967;50.852;4.400;2022-09-02T15:42:08;29.00;56.30
23579;DHT22;11967;50.852;4.400;2022-09-02T15:44:34;29.00;56.40
23579;DHT22;11967;50.852;4.400;2022-09-02T15:47:00;28.90;56.50
23579;DHT22;11967;50.852;4.400;2022-09-02T15:49:26;28.90;56.00
23579;DHT22;11967;50.852;4.400;2022-09-02T15:51:52;28.90;56.00
23579;DHT22;11967;50.852;4.400;2022-09-02T15:54:20;28.90;56.70
23579;DHT22;11967;50.852;4.400;2022-09-02T15:56:47;28.80;56.40
23579;DHT22;11967;50.852;4.400;2022-09-02T15:59:14;28.80;56.60
23579;DHT22;11967;50.852;4.400;2022-09-02T16:01:45;28.80;56.50
23579;DHT22;11967;50.852;4.400;2022-09-02T16:04:11;28.80;56.50
23579;DHT22;11967;50.852;4.400;2022-09-02T16:06:39;28.80;56.40
23579;DHT22;11967;50.852;4.400;2022-09-02T16:09:06;28.70;56.50
23579;DHT22;11967;50.852;4.400;2022-09-02T16:11:32;28.70;56.80
23579;DHT22;11967;50.852;4.400;2022-09-02T16:13:58;28.60;56.60
23579;DHT22;11967;50.852;4.400;2022-09-02T16:16:24;28.60;56.50
23579;DHT22;11967;50.852;4.400;2022-09-02T16:18:51;28.50;56.70
23579;DHT22;11967;50.852;4.400;2022-09-02T16:21:17;28.50;56.90
23579;DHT22;11967;50.852;4.400;2022-09-02T16:23:44;28.50;56.90
23579;DHT22;11967;50.852;4.400;2022-09-02T16:28:43;28.50;57.30
23579;DHT22;11967;50.852;4.400;2022-09-02T16:31:10;28.40;57.40
23579;DHT22;11967;50.852;4.400;2022-09-02T16:33:37;28.40;57.20
23579;DHT22;11967;50.852;4.400;2022-09-02T16:36:03;28.40;57.10
23579;DHT22;11967;50.852;4.400;2022-09-02T16:38:29;28.20;57.30
23579;DHT22;11967;50.852;4.400;2022-09-02T16:40:56;28.30;57.30
23579;DHT22;11967;50.852;4.400;2022-09-02T16:43:23;28.20;57.20
23579;DHT22;11967;50.852;4.400;2022-09-02T16:45:50;28.20;57.30
23579;DHT22;11967;50.852;4.400;2022-09-02T16:48:19;28.30;57.50
23579;DHT22;11967;50.852;4.400;2022-09-02T16:50:46;28.20;57.60
23579;DHT22;11967;50.852;4.400;2022-09-02T16:53:12;28.20;57.60
23579;DHT22;11967;50.852;4.400;2022-09-02T16:55:45;28.20;57.60
23579;DHT22;11967;50.852;4.400;2022-09-02T16:58:12;28.20;57.60
23579;DHT22;11967;50.852;4.400;2022-09-02T17:00:39;28.30;57.80
23579;DHT22;11967;50.852;4.400;2022-09-02T17:03:09;28.30;57.90
23579;DHT22;11967;50.852;4.400;2022-09-02T17:05:36;28.30;57.90
23579;DHT22;11967;50.852;4.400;2022-09-02T17:08:02;28.20;57.90
23579;DHT22;11967;50.852;4.400;2022-09-02T17:10:32;28.20;58.00
23579;DHT22;11967;50.852;4.400;2022-09-02T17:12:58;28.00;58.20
23579;DHT22;11967;50.852;4.400;2022-09-02T17:15:24;28.00;58.40
23579;DHT22;11967;50.852;4.400;2022-09-02T17:17:51;28.10;58.50
23579;DHT22;11967;50.852;4.400;2022-09-02T17:20:17;28.10;58.50
23579;DHT22;11967;50.852;4.400;2022-09-02T17:22:43;28.00;58.60
23579;DHT22;11967;50.852;4.400;2022-09-02T17:25:09;28.00;58.80
23579;DHT22;11967;50.852;4.400;2022-09-02T17:27:36;28.00;59.00
23579;DHT22;11967;50.852;4.400;2022-09-02T17:30:04;27.90;59.00
23579;DHT22;11967;50.852;4.400;2022-09-02T17:32:30;28.00;59.20
23579;DHT22;11967;50.852;4.400;2022-09-02T17:34:55;28.00;59.20
23579;DHT22;11967;50.852;4.400;2022-09-02T17:37:21;28.00;59.30
23579;DHT22;11967;50.852;4.400;2022-09-02T17:39:47;28.00;59.50
23579;DHT22;11967;50.852;4.400;2022-09-02T17:42:14;28.00;59.60
23579;DHT22;11967;50.852;4.400;2022-09-02T17:44:40;28.00;59.80